sensor_id;sensor_type;location;lat;lon;timestamp;temperature;humidity
14257;DHT22;7212;53.254;6.456;2022-09-09T00:01:28;17.80;99.90
14257;DHT22;7212;53.254;6.456;2022-09-09T00:04:05;17.80;99.90
14257;DHT22;7212;53.254;6.456;2022-09-09T00:07:03;17.80;99.90
14257;DHT22;7212;53.254;6.456;2022-09-09T00:09:39;17.70;99.90
14257;DHT22;7212;53.254;6.456;2022-09-09T00:12:11;17.70;99.90
14257;DHT22;7212;53.254;6.456;2022-09-09T00:14:47;17.70;99.90
14257;DHT22;7212;53.254;6.456;2022-09-09T00:17:42;17.70;99.90
14257;DHT22;7212;53.254;6.456;2022-09-09T00:25:47;17.60;99.90
14257;DHT22;7212;53.254;6.456;2022-09-09T00:28:26;17.60;99.90
14257;DHT22;7212;53.254;6.456;2022-09-09T00:30:52;17.60;99.90
14257;DHT22;7212;53.254;6.456;2022-09-09T00:33:20;17.50;99.90
14257;DHT22;7212;53.254;6.456;2022-09-09T00:35:56;17.50;99.90
14257;DHT22;7212;53.254;6.456;2022-09-09T00:38:35;17.50;99.90
14257;DHT22;7212;53.254;6.456;2022-09-09T00:43:40;17.50;99.90
14257;DHT22;7212;53.254;6.456;2022-09-09T00:47:12;17.50;99.90
14257;DHT22;7212;53.254;6.456;2022-09-09T00:49:33;17.40;99.90
14257;DHT22;7212;53.254;6.456;2022-09-09T00:52:22;17.40;99.90
14257;DHT22;7212;53.254;6.456;2022-09-09T00:57:46;17.40;99.90
14257;DHT22;7212;53.254;6.456;2022-09-09T01:00:49;17.40;99.90
14257;DHT22;7212;53.254;6.456;2022-09-09T01:06:31;17.30;99.90
14257;DHT22;7212;53.254;6.456;2022-09-09T01:15:00;17.20;99.90
14257;DHT22;7212;53.254;6.456;2022-09-09T01:17:44;17.20;99.90
14257;DHT22;7212;53.254;6.456;2022-09-09T01:20:29;17.20;99.90
14257;DHT22;7212;53.254;6.456;2022-09-09T01:26:23;17.20;99.90
14257;DHT22;7212;53.254;6.456;2022-09-09T01:28:51;17.10;99.90
14257;DHT22;7212;53.254;6.456;2022-09-09T01:31:21;17.10;99.90
14257;DHT22;7212;53.254;6.456;2022-09-09T01:33:48;17.10;99.90
14257;DHT22;7212;53.254;6.456;2022-09-09T01:36:38;17.10;99.90
14257;DHT22;7212;53.254;6.456;2022-09-09T01:39:04;17.10;99.90
14257;DHT22;7212;53.254;6.456;2022-09-09T01:41:30;17.10;99.90
14257;DHT22;7212;53.254;6.456;2022-09-09T01:43:56;17.10;99.90
14257;DHT22;7212;53.254;6.456;2022-09-09T01:46:23;17.00;99.90
14257;DHT22;7212;53.254;6.456;2022-09-09T01:48:51;17.00;99.90
14257;DHT22;7212;53.254;6.456;2022-09-09T01:51:18;17.00;99.90
14257;DHT22;7212;53.254;6.456;2022-09-09T01:53:44;17.00;99.90
14257;DHT22;7212;53.254;6.456;2022-09-09T02:04:32;16.90;99.90
14257;DHT22;7212;53.254;6.456;2022-09-09T02:07:00;16.90;99.90
14257;DHT22;7212;53.254;6.456;2022-09-09T02:09:26;16.90;99.90
14257;DHT22;7212;53.254;6.456;2022-09-09T02:12:11;16.90;99.90
14257;DHT22;7212;53.254;6.456;2022-09-09T02:14:46;16.90;99.90
14257;DHT22;7212;53.254;6.456;2022-09-09T02:17:16;16.90;99.90
14257;DHT22;7212;53.254;6.456;2022-09-09T02:19:48;16.90;99.90
14257;DHT22;7212;53.254;6.456;2022-09-09T02:22:17;16.80;99.90
14257;DHT22;7212;53.254;6.456;2022-09-09T02:24:45;16.80;99.90
14257;DHT22;7212;53.254;6.456;2022-09-09T02:27:12;16.80;99.90
14257;DHT22;7212;53.254;6.456;2022-09-09T02:29:41;16.80;99.90
14257;DHT22;7212;53.254;6.456;2022-09-09T02:32:12;16.80;99.90
14257;DHT22;7212;53.254;6.456;2022-09-09T02:34:58;16.80;99.90
14257;DHT22;7212;53.254;6.456;2022-09-09T02:37:31;16.80;99.90
14257;DHT22;7212;53.254;6.456;2022-09-09T02:40:02;16.80;99.90
14257;DHT22;7212;53.254;6.456;2022-09-09T02:42:28;16.80;99.90
14257;DHT22;7212;53.254;6.456;2022-09-09T02:44:53;16.80;99.90
14257;DHT22;7212;53.254;6.456;2022-09-09T02:47:37;16.80;99.90
14257;DHT22;7212;53.254;6.456;2022-09-09T02:50:09;16.80;99.90
14257;DHT22;7212;53.254;6.456;2022-09-09T02:52:45;16.80;99.90
14257;DHT22;7212;53.254;6.456;2022-09-09T02:57:54;16.80;99.90
14257;DHT22;7212;53.254;6.456;2022-09-09T03:00:25;16.80;99.90
14257;DHT22;7212;53.254;6.456;2022-09-09T03:02:51;16.80;99.90
14257;DHT22;7212;53.254;6.456;2022-09-09T03:05:17;16.80;99.90
14257;DHT22;7212;53.254;6.456;2022-09-09T03:07:43;16.80;99.90
14257;DHT22;7212;53.254;6.456;2022-09-09T03:10:08;16.80;99.90
14257;DHT22;7212;53.254;6.456;2022-09-09T03:12:35;16.80;99.90
14257;DHT22;7212;53.254;6.456;2022-09-09T03:15:01;16.80;99.90
14257;DHT22;7212;53.254;6.456;2022-09-09T03:17:27;16.80;99.90
14257;DHT22;7212;53.254;6.456;2022-09-09T03:19:53;16.70;99.90
14257;DHT22;7212;53.254;6.456;2022-09-09T03:22:20;16.80;99.90
14257;DHT22;7212;53.254;6.456;2022-09-09T03:24:46;16.80;99.90
14257;DHT22;7212;53.254;6.456;2022-09-09T03:27:12;16.70;99.90
14257;DHT22;7212;53.254;6.456;2022-09-09T03:29:40;16.80;99.90
14257;DHT22;7212;53.254;6.456;2022-09-09T03:32:05;16.80;99.90
14257;DHT22;7212;53.254;6.456;2022-09-09T03:34:31;16.70;99.90
14257;DHT22;7212;53.254;6.456;2022-09-09T03:36:57;16.80;99.90
14257;DHT22;7212;53.254;6.456;2022-09-09T03:39:22;16.70;99.90
14257;DHT22;7212;53.254;6.456;2022-09-09T03:41:48;16.80;99.90
14257;DHT22;7212;53.254;6.456;2022-09-09T03:44:14;16.70;99.90
14257;DHT22;7212;53.254;6.456;2022-09-09T03:46:40;16.70;99.90
14257;DHT22;7212;53.254;6.456;2022-09-09T03:49:06;16.70;99.90
14257;DHT22;7212;53.254;6.456;2022-09-09T03:51:31;16.80;99.90
14257;DHT22;7212;53.254;6.456;2022-09-09T03:53:59;16.80;99.90
14257;DHT22;7212;53.254;6.456;2022-09-09T03:56:25;16.80;99.90
14257;DHT22;7212;53.254;6.456;2022-09-09T03:58:50;16.80;99.90
14257;DHT22;7212;53.254;6.456;2022-09-09T04:01:16;16.80;99.90
14257;DHT22;7212;53.254;6.456;2022-09-09T04:03:43;16.80;99.90
14257;DHT22;7212;53.254;6.456;2022-09-09T04:06:10;16.70;99.90
14257;DHT22;7212;53.254;6.456;2022-09-09T04:08:39;16.70;99.90
14257;DHT22;7212;53.254;6.456;2022-09-09T04:11:05;16.70;99.90
14257;DHT22;7212;53.254;6.456;2022-09-09T04:13:35;16.70;99.90
14257;DHT22;7212;53.254;6.456;2022-09-09T04:16:03;16.70;99.90
14257;DHT22;7212;53.254;6.456;2022-09-09T04:18:29;16.70;99.90
14257;DHT22;7212;53.254;6.456;2022-09-09T04:20:55;16.70;99.90
14257;DHT22;7212;53.254;6.456;2022-09-09T04:23:25;16.70;99.90
14257;DHT22;7212;53.254;6.456;2022-09-09T04:25:53;16.70;99.90
14257;DHT22;7212;53.254;6.456;2022-09-09T04:28:20;16.70;99.90
14257;DHT22;7212;53.254;6.456;2022-09-09T04:30:46;16.70;99.90
14257;DHT22;7212;53.254;6.456;2022-09-09T04:33:12;16.80;99.90
14257;DHT22;7212;53.254;6.456;2022-09-09T04:35:39;16.70;99.90
14257;DHT22;7212;53.254;6.456;2022-09-09T04:38:05;16.80;99.90
14257;DHT22;7212;53.254;6.456;2022-09-09T04:40:33;16.80;99.90
14257;DHT22;7212;53.254;6.456;2022-09-09T04:43:00;16.80;99.90
14257;DHT22;7212;53.254;6.456;2022-09-09T04:45:26;16.80;99.90
14257;DHT22;7212;53.254;6.456;2022-09-09T04:47:52;16.80;99.90
14257;DHT22;7212;53.254;6.456;2022-09-09T04:50:19;16.80;99.90
14257;DHT22;7212;53.254;6.456;2022-09-09T04:52:45;16.80;99.90
14257;DHT22;7212;53.254;6.456;2022-09-09T04:55:10;16.80;99.90
14257;DHT22;7212;53.254;6.456;2022-09-09T04:57:38;16.80;99.90
14257;DHT22;7212;53.254;6.456;2022-09-09T05:00:05;16.80;99.90
14257;DHT22;7212;53.254;6.456;2022-09-09T05:02:31;16.80;99.90
14257;DHT22;7212;53.254;6.456;2022-09-09T05:04:58;16.80;99.90
14257;DHT22;7212;53.254;6.456;2022-09-09T05:07:24;16.80;99.90
14257;DHT22;7212;53.254;6.456;2022-09-09T05:09:51;16.80;99.90
14257;DHT22;7212;53.254;6.456;2022-09-09T05:12:17;16.80;99.90
14257;DHT22;7212;53.254;6.456;2022-09-09T05:14:43;16.80;99.90
14257;DHT22;7212;53.254;6.456;2022-09-09T05:17:09;16.80;99.90
14257;DHT22;7212;53.254;6.456;2022-09-09T05:19:35;16.80;99.90
14257;DHT22;7212;53.254;6.456;2022-09-09T05:22:00;16.80;99.90
14257;DHT22;7212;53.254;6.456;2022-09-09T05:24:26;16.80;99.90
14257;DHT22;7212;53.254;6.456;2022-09-09T05:26:52;16.80;99.90
14257;DHT22;7212;53.254;6.456;2022-09-09T05:29:18;16.80;99.90
14257;DHT22;7212;53.254;6.456;2022-09-09T05:31:45;16.80;99.90
14257;DHT22;7212;53.254;6.456;2022-09-09T05:34:11;16.80;99.90
14257;DHT22;7212;53.254;6.456;2022-09-09T05:36:37;16.80;99.90
14257;DHT22;7212;53.254;6.456;2022-09-09T05:39:03;16.80;99.90
14257;DHT22;7212;53.254;6.456;2022-09-09T05:41:28;16.80;99.90
14257;DHT22;7212;53.254;6.456;2022-09-09T05:43:54;16.80;99.90
14257;DHT22;7212;53.254;6.456;2022-09-09T05:46:22;16.80;99.90
14257;DHT22;7212;53.254;6.456;2022-09-09T05:48:50;16.80;99.90
14257;DHT22;7212;53.254;6.456;2022-09-09T05:51:19;16.80;99.90
14257;DHT22;7212;53.254;6.456;2022-09-09T05:53:47;16.80;99.90
14257;DHT22;7212;53.254;6.456;2022-09-09T05:56:15;16.80;99.90
14257;DHT22;7212;53.254;6.456;2022-09-09T05:58:41;16.80;99.90
14257;DHT22;7212;53.254;6.456;2022-09-09T06:01:24;16.80;99.90
14257;DHT22;7212;53.254;6.456;2022-09-09T06:03:51;16.80;99.90
14257;DHT22;7212;53.254;6.456;2022-09-09T06:06:19;16.80;99.90
14257;DHT22;7212;53.254;6.456;2022-09-09T06:08:50;16.90;99.90
14257;DHT22;7212;53.254;6.456;2022-09-09T06:11:27;16.90;99.90
14257;DHT22;7212;53.254;6.456;2022-09-09T06:13:56;16.90;99.90
14257;DHT22;7212;53.254;6.456;2022-09-09T06:16:23;16.90;99.90
14257;DHT22;7212;53.254;6.456;2022-09-09T06:18:50;16.90;99.90
14257;DHT22;7212;53.254;6.456;2022-09-09T06:21:21;16.90;99.90
14257;DHT22;7212;53.254;6.456;2022-09-09T06:23:48;16.90;99.90
14257;DHT22;7212;53.254;6.456;2022-09-09T06:26:33;16.90;99.90
14257;DHT22;7212;53.254;6.456;2022-09-09T06:28:59;16.90;99.90
14257;DHT22;7212;53.254;6.456;2022-09-09T06:31:27;16.90;99.90
14257;DHT22;7212;53.254;6.456;2022-09-09T06:33:57;16.90;99.90
14257;DHT22;7212;53.254;6.456;2022-09-09T06:36:24;16.90;99.90
14257;DHT22;7212;53.254;6.456;2022-09-09T06:38:50;17.00;99.90
14257;DHT22;7212;53.254;6.456;2022-09-09T06:41:19;17.00;99.90
14257;DHT22;7212;53.254;6.456;2022-09-09T06:43:48;17.00;99.90
14257;DHT22;7212;53.254;6.456;2022-09-09T06:46:22;17.00;99.90
14257;DHT22;7212;53.254;6.456;2022-09-09T06:48:48;17.00;99.90
14257;DHT22;7212;53.254;6.456;2022-09-09T06:51:18;17.00;99.90
14257;DHT22;7212;53.254;6.456;2022-09-09T06:53:45;17.00;99.90
14257;DHT22;7212;53.254;6.456;2022-09-09T06:56:17;17.10;99.90
14257;DHT22;7212;53.254;6.456;2022-09-09T06:58:44;17.10;99.90
14257;DHT22;7212;53.254;6.456;2022-09-09T07:01:15;17.10;99.90
14257;DHT22;7212;53.254;6.456;2022-09-09T07:03:42;17.10;99.90
14257;DHT22;7212;53.254;6.456;2022-09-09T07:06:15;17.20;99.90
14257;DHT22;7212;53.254;6.456;2022-09-09T07:08:43;17.20;99.90
14257;DHT22;7212;53.254;6.456;2022-09-09T07:11:09;17.20;99.90
14257;DHT22;7212;53.254;6.456;2022-09-09T07:13:35;17.20;99.90
14257;DHT22;7212;53.254;6.456;2022-09-09T07:16:11;17.20;99.90
14257;DHT22;7212;53.254;6.456;2022-09-09T07:18:39;17.20;99.90
14257;DHT22;7212;53.254;6.456;2022-09-09T07:21:05;17.30;99.90
14257;DHT22;7212;53.254;6.456;2022-09-09T07:23:32;17.30;99.90
14257;DHT22;7212;53.254;6.456;2022-09-09T07:25:58;17.30;99.90
14257;DHT22;7212;53.254;6.456;2022-09-09T07:28:25;17.30;99.90
14257;DHT22;7212;53.254;6.456;2022-09-09T07:30:59;17.40;99.90
14257;DHT22;7212;53.254;6.456;2022-09-09T07:33:25;17.40;99.90
14257;DHT22;7212;53.254;6.456;2022-09-09T07:35:52;17.40;99.90
14257;DHT22;7212;53.254;6.456;2022-09-09T07:38:19;17.40;99.90
14257;DHT22;7212;53.254;6.456;2022-09-09T07:40:45;17.40;99.90
14257;DHT22;7212;53.254;6.456;2022-09-09T07:43:11;17.50;99.90
14257;DHT22;7212;53.254;6.456;2022-09-09T07:45:37;17.50;99.90
14257;DHT22;7212;53.254;6.456;2022-09-09T07:48:03;17.50;99.90
14257;DHT22;7212;53.254;6.456;2022-09-09T07:50:30;17.50;99.90
14257;DHT22;7212;53.254;6.456;2022-09-09T07:52:56;17.60;99.90
14257;DHT22;7212;53.254;6.456;2022-09-09T07:55:22;17.60;99.90
14257;DHT22;7212;53.254;6.456;2022-09-09T07:57:51;17.60;99.90
14257;DHT22;7212;53.254;6.456;2022-09-09T08:00:17;17.60;99.90
14257;DHT22;7212;53.254;6.456;2022-09-09T08:02:44;17.60;99.90
14257;DHT22;7212;53.254;6.456;2022-09-09T08:05:09;17.70;99.90
14257;DHT22;7212;53.254;6.456;2022-09-09T08:07:35;17.70;99.90
14257;DHT22;7212;53.254;6.456;2022-09-09T08:10:02;17.70;99.90
14257;DHT22;7212;53.254;6.456;2022-09-09T08:12:27;17.70;99.90
14257;DHT22;7212;53.254;6.456;2022-09-09T08:14:53;17.70;99.90
14257;DHT22;7212;53.254;6.456;2022-09-09T08:17:19;17.70;99.90
14257;DHT22;7212;53.254;6.456;2022-09-09T08:19:45;17.80;99.90
14257;DHT22;7212;53.254;6.456;2022-09-09T08:22:11;17.80;99.90
14257;DHT22;7212;53.254;6.456;2022-09-09T08:24:36;17.80;99.90
14257;DHT22;7212;53.254;6.456;2022-09-09T08:27:02;17.90;99.90
14257;DHT22;7212;53.254;6.456;2022-09-09T08:29:28;17.90;99.90
14257;DHT22;7212;53.254;6.456;2022-09-09T08:31:57;17.90;99.90
14257;DHT22;7212;53.254;6.456;2022-09-09T08:34:24;18.00;99.90
14257;DHT22;7212;53.254;6.456;2022-09-09T08:36:51;18.00;99.90
14257;DHT22;7212;53.254;6.456;2022-09-09T08:39:19;18.00;99.90
14257;DHT22;7212;53.254;6.456;2022-09-09T08:58:18;18.30;99.90
14257;DHT22;7212;53.254;6.456;2022-09-09T09:12:19;18.60;99.90
14257;DHT22;7212;53.254;6.456;2022-09-09T09:14:47;18.60;99.90
14257;DHT22;7212;53.254;6.456;2022-09-09T09:17:19;18.70;99.90
14257;DHT22;7212;53.254;6.456;2022-09-09T09:19:47;18.70;99.90
14257;DHT22;7212;53.254;6.456;2022-09-09T09:22:44;18.70;99.90
14257;DHT22;7212;53.254;6.456;2022-09-09T09:30:36;18.80;99.90
14257;DHT22;7212;53.254;6.456;2022-09-09T09:36:09;18.90;99.90
14257;DHT22;7212;53.254;6.456;2022-09-09T09:38:36;18.90;99.90
14257;DHT22;7212;53.254;6.456;2022-09-09T09:41:03;18.90;99.90
14257;DHT22;7212;53.254;6.456;2022-09-09T09:43:30;18.90;99.90
14257;DHT22;7212;53.254;6.456;2022-09-09T09:45:57;19.00;99.90
14257;DHT22;7212;53.254;6.456;2022-09-09T09:48:23;19.00;99.90
14257;DHT22;7212;53.254;6.456;2022-09-09T09:50:58;19.10;99.90
14257;DHT22;7212;53.254;6.456;2022-09-09T09:53:28;19.10;99.90
14257;DHT22;7212;53.254;6.456;2022-09-09T09:56:03;19.20;99.90
14257;DHT22;7212;53.254;6.456;2022-09-09T10:01:30;19.30;99.90
14257;DHT22;7212;53.254;6.456;2022-09-09T10:04:19;19.30;99.90
14257;DHT22;7212;53.254;6.456;2022-09-09T10:06:46;19.40;99.90
14257;DHT22;7212;53.254;6.456;2022-09-09T10:09:32;19.40;99.90
14257;DHT22;7212;53.254;6.456;2022-09-09T10:14:51;19.50;99.90
14257;DHT22;7212;53.254;6.456;2022-09-09T10:17:36;19.50;99.90
14257;DHT22;7212;53.254;6.456;2022-09-09T10:33:50;19.70;99.90
14257;DHT22;7212;53.254;6.456;2022-09-09T10:36:26;19.80;99.90
14257;DHT22;7212;53.254;6.456;2022-09-09T10:42:06;19.90;99.90
14257;DHT22;7212;53.254;6.456;2022-09-09T10:45:20;19.90;99.90
14257;DHT22;7212;53.254;6.456;2022-09-09T10:48:19;19.90;99.90
14257;DHT22;7212;53.254;6.456;2022-09-09T10:56:22;20.10;99.90
14257;DHT22;7212;53.254;6.456;2022-09-09T10:59:00;20.10;99.90
14257;DHT22;7212;53.254;6.456;2022-09-09T11:01:42;20.10;99.90
14257;DHT22;7212;53.254;6.456;2022-09-09T11:04:22;20.10;99.90
14257;DHT22;7212;53.254;6.456;2022-09-09T11:06:54;20.10;99.90
14257;DHT22;7212;53.254;6.456;2022-09-09T11:09:23;20.20;99.90
14257;DHT22;7212;53.254;6.456;2022-09-09T11:11:55;20.30;99.90
14257;DHT22;7212;53.254;6.456;2022-09-09T11:14:36;20.30;99.90
14257;DHT22;7212;53.254;6.456;2022-09-09T11:17:10;20.30;99.90
14257;DHT22;7212;53.254;6.456;2022-09-09T11:19:41;20.40;99.90
14257;DHT22;7212;53.254;6.456;2022-09-09T11:25:35;20.50;99.90
14257;DHT22;7212;53.254;6.456;2022-09-09T11:28:16;20.50;99.90
14257;DHT22;7212;53.254;6.456;2022-09-09T11:41:48;20.70;99.90
14257;DHT22;7212;53.254;6.456;2022-09-09T11:44:26;20.80;99.90
14257;DHT22;7212;53.254;6.456;2022-09-09T11:46:53;20.90;99.90
14257;DHT22;7212;53.254;6.456;2022-09-09T11:49:41;20.90;99.90
14257;DHT22;7212;53.254;6.456;2022-09-09T11:54:50;21.10;99.90
14257;DHT22;7212;53.254;6.456;2022-09-09T11:57:32;21.10;99.90
14257;DHT22;7212;53.254;6.456;2022-09-09T11:59:58;21.10;99.90
14257;DHT22;7212;53.254;6.456;2022-09-09T12:02:26;21.10;99.90
14257;DHT22;7212;53.254;6.456;2022-09-09T12:05:08;21.10;99.90
14257;DHT22;7212;53.254;6.456;2022-09-09T12:07:38;21.10;99.90
14257;DHT22;7212;53.254;6.456;2022-09-09T12:12:37;21.20;99.90
14257;DHT22;7212;53.254;6.456;2022-09-09T12:17:52;21.40;99.90
14257;DHT22;7212;53.254;6.456;2022-09-09T12:23:16;21.30;99.90
14257;DHT22;7212;53.254;6.456;2022-09-09T12:25:57;21.30;99.90
14257;DHT22;7212;53.254;6.456;2022-09-09T12:28:36;21.30;99.90
14257;DHT22;7212;53.254;6.456;2022-09-09T12:31:17;21.40;99.90
14257;DHT22;7212;53.254;6.456;2022-09-09T12:33:45;21.40;99.90
14257;DHT22;7212;53.254;6.456;2022-09-09T12:36:19;21.40;99.90
14257;DHT22;7212;53.254;6.456;2022-09-09T12:38:45;21.40;99.90
14257;DHT22;7212;53.254;6.456;2022-09-09T12:41:25;21.50;99.90
14257;DHT22;7212;53.254;6.456;2022-09-09T12:44:02;21.50;99.90
14257;DHT22;7212;53.254;6.456;2022-09-09T12:46:41;21.50;99.90
14257;DHT22;7212;53.254;6.456;2022-09-09T12:49:28;21.60;99.90
14257;DHT22;7212;53.254;6.456;2022-09-09T12:51:55;21.60;99.90
14257;DHT22;7212;53.254;6.456;2022-09-09T12:54:22;21.80;99.90
14257;DHT22;7212;53.254;6.456;2022-09-09T12:56:49;21.80;99.90
14257;DHT22;7212;53.254;6.456;2022-09-09T12:59:46;21.80;99.90
14257;DHT22;7212;53.254;6.456;2022-09-09T13:02:26;21.80;99.90
14257;DHT22;7212;53.254;6.456;2022-09-09T13:04:53;21.80;99.90
14257;DHT22;7212;53.254;6.456;2022-09-09T13:07:20;21.90;99.90
14257;DHT22;7212;53.254;6.456;2022-09-09T13:09:48;22.10;99.90
14257;DHT22;7212;53.254;6.456;2022-09-09T13:12:22;22.20;99.90
14257;DHT22;7212;53.254;6.456;2022-09-09T13:14:55;22.40;99.90
14257;DHT22;7212;53.254;6.456;2022-09-09T13:17:26;22.50;99.90
14257;DHT22;7212;53.254;6.456;2022-09-09T13:19:55;22.60;99.90
14257;DHT22;7212;53.254;6.456;2022-09-09T13:22:30;22.70;99.90
14257;DHT22;7212;53.254;6.456;2022-09-09T13:25:03;22.80;99.90
14257;DHT22;7212;53.254;6.456;2022-09-09T13:27:39;22.90;99.90
14257;DHT22;7212;53.254;6.456;2022-09-09T13:30:20;23.00;99.90
14257;DHT22;7212;53.254;6.456;2022-09-09T13:32:59;23.00;99.90
14257;DHT22;7212;53.254;6.456;2022-09-09T13:35:26;23.00;99.90
14257;DHT22;7212;53.254;6.456;2022-09-09T13:37:52;23.00;99.90
14257;DHT22;7212;53.254;6.456;2022-09-09T13:40:20;23.00;99.90
14257;DHT22;7212;53.254;6.456;2022-09-09T13:42:50;23.00;99.90
14257;DHT22;7212;53.254;6.456;2022-09-09T13:45:19;23.10;99.90
14257;DHT22;7212;53.254;6.456;2022-09-09T13:47:46;23.20;99.90
14257;DHT22;7212;53.254;6.456;2022-09-09T13:50:30;23.10;99.90
14257;DHT22;7212;53.254;6.456;2022-09-09T13:52:58;23.10;99.90
14257;DHT22;7212;53.254;6.456;2022-09-09T13:55:25;23.10;99.90
14257;DHT22;7212;53.254;6.456;2022-09-09T13:58:02;23.10;99.90
14257;DHT22;7212;53.254;6.456;2022-09-09T14:00:33;23.10;99.90
14257;DHT22;7212;53.254;6.456;2022-09-09T14:02:59;23.10;99.90
14257;DHT22;7212;53.254;6.456;2022-09-09T14:05:30;23.10;99.90
14257;DHT22;7212;53.254;6.456;2022-09-09T14:07:57;23.10;99.90
14257;DHT22;7212;53.254;6.456;2022-09-09T14:10:23;23.10;99.90
14257;DHT22;7212;53.254;6.456;2022-09-09T14:12:49;23.20;99.90
14257;DHT22;7212;53.254;6.456;2022-09-09T14:15:14;23.30;99.90
14257;DHT22;7212;53.254;6.456;2022-09-09T14:17:41;23.50;99.90
14257;DHT22;7212;53.254;6.456;2022-09-09T14:20:08;23.60;99.90
14257;DHT22;7212;53.254;6.456;2022-09-09T14:22:35;23.70;99.90
14257;DHT22;7212;53.254;6.456;2022-09-09T14:25:02;23.70;99.90
14257;DHT22;7212;53.254;6.456;2022-09-09T14:27:27;23.70;99.90
14257;DHT22;7212;53.254;6.456;2022-09-09T14:29:54;23.60;99.90
14257;DHT22;7212;53.254;6.456;2022-09-09T14:32:20;23.60;99.90
14257;DHT22;7212;53.254;6.456;2022-09-09T14:34:46;23.50;99.90
14257;DHT22;7212;53.254;6.456;2022-09-09T14:37:15;23.50;99.90
14257;DHT22;7212;53.254;6.456;2022-09-09T14:39:42;23.50;99.90
14257;DHT22;7212;53.254;6.456;2022-09-09T14:42:13;23.40;99.90
14257;DHT22;7212;53.254;6.456;2022-09-09T14:44:38;23.40;99.90
14257;DHT22;7212;53.254;6.456;2022-09-09T14:47:05;23.20;99.90
14257;DHT22;7212;53.254;6.456;2022-09-09T14:49:30;23.00;99.90
14257;DHT22;7212;53.254;6.456;2022-09-09T14:51:56;23.00;99.90
14257;DHT22;7212;53.254;6.456;2022-09-09T14:54:22;23.00;99.90
14257;DHT22;7212;53.254;6.456;2022-09-09T14:56:48;22.90;99.90
14257;DHT22;7212;53.254;6.456;2022-09-09T14:59:14;22.90;99.90
14257;DHT22;7212;53.254;6.456;2022-09-09T15:01:40;22.90;99.90
14257;DHT22;7212;53.254;6.456;2022-09-09T15:04:06;22.90;99.90
14257;DHT22;7212;53.254;6.456;2022-09-09T15:06:35;23.00;99.90
14257;DHT22;7212;53.254;6.456;2022-09-09T15:09:04;23.00;99.90
14257;DHT22;7212;53.254;6.456;2022-09-09T15:11:34;23.00;99.90
14257;DHT22;7212;53.254;6.456;2022-09-09T15:14:04;23.00;99.90
14257;DHT22;7212;53.254;6.456;2022-09-09T15:16:30;23.00;99.90
14257;DHT22;7212;53.254;6.456;2022-09-09T15:18:59;23.00;99.90
14257;DHT22;7212;53.254;6.456;2022-09-09T15:21:31;23.20;99.90
14257;DHT22;7212;53.254;6.456;2022-09-09T15:23:57;23.30;99.90
14257;DHT22;7212;53.254;6.456;2022-09-09T15:26:24;23.40;99.90
14257;DHT22;7212;53.254;6.456;2022-09-09T15:28:51;23.50;99.90
14257;DHT22;7212;53.254;6.456;2022-09-09T15:31:27;23.60;99.90
14257;DHT22;7212;53.254;6.456;2022-09-09T15:33:58;23.70;99.90
14257;DHT22;7212;53.254;6.456;2022-09-09T15:36:38;23.70;99.90
14257;DHT22;7212;53.254;6.456;2022-09-09T15:39:07;23.60;99.90
14257;DHT22;7212;53.254;6.456;2022-09-09T15:41:33;23.50;99.90
14257;DHT22;7212;53.254;6.456;2022-09-09T15:43:59;23.50;99.90
14257;DHT22;7212;53.254;6.456;2022-09-09T15:46:35;23.40;99.90
14257;DHT22;7212;53.254;6.456;2022-09-09T15:49:16;23.40;99.90
14257;DHT22;7212;53.254;6.456;2022-09-09T15:51:56;23.40;99.90
14257;DHT22;7212;53.254;6.456;2022-09-09T15:54:31;23.30;99.90
14257;DHT22;7212;53.254;6.456;2022-09-09T15:56:59;23.30;99.90
14257;DHT22;7212;53.254;6.456;2022-09-09T15:59:26;23.30;99.90
14257;DHT22;7212;53.254;6.456;2022-09-09T16:01:53;23.30;99.90
14257;DHT22;7212;53.254;6.456;2022-09-09T16:04:21;23.20;99.90
14257;DHT22;7212;53.254;6.456;2022-09-09T16:07:02;23.20;99.90
14257;DHT22;7212;53.254;6.456;2022-09-09T16:09:28;23.20;99.90
14257;DHT22;7212;53.254;6.456;2022-09-09T16:11:59;23.20;99.90
14257;DHT22;7212;53.254;6.456;2022-09-09T16:14:26;23.20;99.90
14257;DHT22;7212;53.254;6.456;2022-09-09T16:16:52;23.10;99.90
14257;DHT22;7212;53.254;6.456;2022-09-09T16:19:17;23.10;99.90
14257;DHT22;7212;53.254;6.456;2022-09-09T16:21:48;23.10;99.90
14257;DHT22;7212;53.254;6.456;2022-09-09T16:24:18;23.00;99.90
14257;DHT22;7212;53.254;6.456;2022-09-09T16:26:47;23.00;99.90
14257;DHT22;7212;53.254;6.456;2022-09-09T16:29:14;22.90;99.90
14257;DHT22;7212;53.254;6.456;2022-09-09T16:31:41;22.90;99.90
14257;DHT22;7212;53.254;6.456;2022-09-09T16:34:07;22.80;99.90
14257;DHT22;7212;53.254;6.456;2022-09-09T16:36:35;22.80;99.90
14257;DHT22;7212;53.254;6.456;2022-09-09T16:39:04;22.70;99.90
14257;DHT22;7212;53.254;6.456;2022-09-09T16:41:31;22.70;99.90
14257;DHT22;7212;53.254;6.456;2022-09-09T16:43:58;22.60;99.90
14257;DHT22;7212;53.254;6.456;2022-09-09T16:46:26;22.60;99.90
14257;DHT22;7212;53.254;6.456;2022-09-09T16:48:53;22.60;99.90
14257;DHT22;7212;53.254;6.456;2022-09-09T16:51:26;22.50;99.90
14257;DHT22;7212;53.254;6.456;2022-09-09T16:53:53;22.50;99.90
14257;DHT22;7212;53.254;6.456;2022-09-09T16:56:22;22.40;99.90
14257;DHT22;7212;53.254;6.456;2022-09-09T16:58:55;22.40;99.90
14257;DHT22;7212;53.254;6.456;2022-09-09T17:01:25;22.40;99.90
14257;DHT22;7212;53.254;6.456;2022-09-09T17:03:55;22.30;99.90
14257;DHT22;7212;53.254;6.456;2022-09-09T17:06:21;22.30;99.90
14257;DHT22;7212;53.254;6.456;2022-09-09T17:08:47;22.20;99.90
14257;DHT22;7212;53.254;6.456;2022-09-09T17:11:18;22.20;99.90
14257;DHT22;7212;53.254;6.456;2022-09-09T17:13:45;22.20;99.90
14257;DHT22;7212;53.254;6.456;2022-09-09T17:16:13;22.10;99.90
14257;DHT22;7212;53.254;6.456;2022-09-09T17:18:39;22.10;99.90
14257;DHT22;7212;53.254;6.456;2022-09-09T17:21:07;22.00;99.90
14257;DHT22;7212;53.254;6.456;2022-09-09T17:23:35;22.00;99.90
14257;DHT22;7212;53.254;6.456;2022-09-09T17:26:04;21.90;99.90
14257;DHT22;7212;53.254;6.456;2022-09-09T17:28:31;21.90;99.90
14257;DHT22;7212;53.254;6.456;2022-09-09T17:31:00;21.90;99.90
14257;DHT22;7212;53.254;6.456;2022-09-09T17:33:28;21.80;99.90
14257;DHT22;7212;53.254;6.456;2022-09-09T17:36:02;21.80;99.90
14257;DHT22;7212;53.254;6.456;2022-09-09T17:38:31;21.80;99.90
14257;DHT22;7212;53.254;6.456;2022-09-09T17:41:34;21.70;99.90
14257;DHT22;7212;53.254;6.456;2022-09-09T17:44:00;21.70;99.90
14257;DHT22;7212;53.254;6.456;2022-09-09T17:46:38;21.70;99.90
14257;DHT22;7212;53.254;6.456;2022-09-09T17:49:07;21.60;99.90
14257;DHT22;7212;53.254;6.456;2022-09-09T17:51:34;21.60;99.90
14257;DHT22;7212;53.254;6.456;2022-09-09T17:54:03;21.50;99.90
14257;DHT22;7212;53.254;6.456;2022-09-09T17:56:30;21.50;99.90
14257;DHT22;7212;53.254;6.456;2022-09-09T17:58:58;21.50;99.90
14257;DHT22;7212;53.254;6.456;2022-09-09T18:01:27;21.40;99.90
14257;DHT22;7212;53.254;6.456;2022-09-09T18:03:54;21.40;99.90
14257;DHT22;7212;53.254;6.456;2022-09-09T18:06:25;21.40;99.90
14257;DHT22;7212;53.254;6.456;2022-09-09T18:09:00;21.30;99.90